Time;durP1;ratioP1;P1;durP2;ratioP2;P2;SDS_P1;SDS_P2;PMS_P1;PMS_P2;Temp;Humidity;BMP_temperature;BMP_pressure;BME280_temperature;BME280_humidity;BME280_pressure;Samples;Min_cycle;Max_cycle;Signal;HPM_P1;HPM_P2
2022/11/16 00:00:13;;;;;;;3.67;1.00;;;;;;;22.56;41.55;102227.56;4212384;28;20043;-69
2022/11/16 00:02:14;;;;;;;4.63;1.42;;;;;;;22.56;41.35;102196.06;4210226;28;20081;-69
2022/11/16 00:04:19;;;;;;;4.15;0.82;;;;;;;22.57;41.39;102175.41;4209672;28;20410;-70
2022/11/16 00:06:21;;;;;;;1.83;1.00;;;;;;;22.54;41.56;102156.41;4212996;28;20101;-70
2022/11/16 00:08:22;;;;;;;2.30;1.10;;;;;;;22.60;41.44;102176.84;4213891;28;20093;-69
2022/11/16 00:10:24;;;;;;;1.45;0.77;;;;;;;22.60;41.65;102183.28;4211874;28;20097;-69
2022/11/16 00:12:25;;;;;;;4.20;0.90;;;;;;;22.60;41.47;102177.69;4211373;28;20105;-69
2022/11/16 00:14:30;;;;;;;2.00;0.77;;;;;;;22.63;41.60;102182.72;4213148;28;20421;-69
2022/11/16 00:16:37;;;;;;;2.15;1.10;;;;;;;22.63;41.38;102182.72;4213356;28;20040;-68
2022/11/16 00:18:39;;;;;;;2.97;1.20;;;;;;;22.64;41.52;102201.16;4208961;28;20040;-71
2022/11/16 00:20:40;;;;;;;1.85;1.00;;;;;;;22.65;41.18;102205.63;4213431;28;20044;-72
2022/11/16 00:22:41;;;;;;;2.58;1.02;;;;;;;22.68;41.19;102221.00;4213523;28;20093;-71
2022/11/16 00:24:43;;;;;;;19.30;2.47;;;;;;;22.67;41.43;102213.72;4211460;28;20433;-73
2022/11/16 00:26:45;;;;;;;3.78;1.13;;;;;;;22.58;41.37;102185.47;4210232;28;20045;-71
2022/11/16 00:28:47;;;;;;;2.05;0.98;;;;;;;22.62;41.27;102164.31;4214122;28;20032;-70
2022/11/16 00:30:58;;;;;;;2.15;1.00;;;;;;;22.67;41.12;102161.56;4213729;28;20044;-73
2022/11/16 00:33:00;;;;;;;1.35;0.90;;;;;;;22.68;41.57;102146.53;4207441;28;20102;-71
2022/11/16 00:35:01;;;;;;;1.15;1.05;;;;;;;22.64;41.42;102150.09;4208912;28;20040;-72
2022/11/16 00:37:06;;;;;;;4.72;1.20;;;;;;;22.65;41.42;102135.88;4210202;28;20449;-70
2022/11/16 00:39:11;;;;;;;2.13;1.10;;;;;;;22.66;41.38;102131.16;4211764;28;20032;-72
2022/11/16 00:41:14;;;;;;;;;;;;;;;22.72;41.28;102142.06;4214547;28;20078;-72
2022/11/16 00:43:19;;;;;;;1.85;1.10;;;;;;;22.71;41.10;102123.66;4212896;28;19916;-73
2022/11/16 00:45:20;;;;;;;1.70;1.10;;;;;;;22.81;41.37;102148.84;4213657;28;20044;-72
2022/11/16 00:47:22;;;;;;;10.07;1.63;;;;;;;22.79;41.28;102120.38;4212889;28;20028;-70
2022/11/16 00:49:23;;;;;;;2.75;1.35;;;;;;;22.61;41.15;102081.72;4211832;28;20445;-69
2022/11/16 00:51:24;;;;;;;3.17;1.25;;;;;;;22.81;41.03;102107.00;4212467;28;20126;-71
2022/11/16 00:53:26;;;;;;;6.40;1.25;;;;;;;22.82;41.41;102096.69;4213985;28;20043;-69
2022/11/16 00:55:27;;;;;;;3.40;1.30;;;;;;;22.82;41.29;102091.97;4216065;28;20429;-70
2022/11/16 00:57:28;;;;;;;5.32;1.25;;;;;;;22.82;41.31;102091.97;4217003;28;20032;-70
2022/11/16 00:59:30;;;;;;;5.05;1.35;;;;;;;22.84;41.09;102089.72;4214058;28;20036;-72
2022/11/16 01:01:31;;;;;;;3.50;1.08;;;;;;;22.71;41.31;102056.69;4216779;28;20101;-70
2022/11/16 01:03:34;;;;;;;3.80;1.10;;;;;;;22.80;41.10;102069.03;4217282;28;20036;-71
2022/11/16 01:05:37;;;;;;;4.60;0.93;;;;;;;22.88;40.98;102083.63;4215422;28;20074;-71
2022/11/16 01:07:39;;;;;;;6.13;1.15;;;;;;;22.88;41.13;102089.22;4214118;28;20104;-70
2022/11/16 01:09:40;;;;;;;4.50;1.15;;;;;;;22.70;41.02;102065.34;4212107;28;20052;-70
2022/11/16 01:14:08;;;;;;;3.03;1.15;;;;;;;22.89;41.03;102097.34;4216204;28;20093;-69
2022/11/16 01:16:13;;;;;;;1.60;1.15;;;;;;;22.91;41.13;102105.44;4218910;28;20044;-70
2022/11/16 01:18:17;;;;;;;2.88;1.58;;;;;;;22.91;40.89;102099.84;4209496;28;20082;-71
2022/11/16 01:20:26;;;;;;;3.75;1.25;;;;;;;22.91;41.24;102097.06;4200216;28;20044;-70
2022/11/16 01:22:28;;;;;;;5.85;1.15;;;;;;;22.91;41.06;102077.53;4211842;28;20449;-69
2022/11/16 01:24:29;;;;;;;2.55;1.30;;;;;;;22.90;40.96;102070.25;4214740;28;20039;-70
2022/11/16 01:26:31;;;;;;;6.38;1.50;;;;;;;22.81;41.02;102040.03;4200459;28;20036;-69
2022/11/16 01:28:32;;;;;;;2.92;1.13;;;;;;;22.89;41.17;102062.97;4207361;28;20041;-69
2022/11/16 01:30:33;;;;;;;4.28;1.20;;;;;;;22.86;41.23;102058.75;4208136;28;20464;-70
2022/11/16 01:32:44;;;;;;;3.78;1.13;;;;;;;22.44;41.22;101989.78;4213384;28;20040;-70
2022/11/16 01:34:46;;;;;;;4.55;1.20;;;;;;;22.84;41.58;102067.41;4214185;28;20484;-70
2022/11/16 01:36:52;;;;;;;3.17;1.50;;;;;;;22.82;41.23;102066.84;4213473;28;20089;-70
2022/11/16 01:38:53;;;;;;;4.15;1.25;;;;;;;22.87;41.34;102070.78;4215518;28;20085;-70
2022/11/16 01:40:55;;;;;;;2.40;1.35;;;;;;;22.75;41.74;102052.25;4203719;28;20052;-70
2022/11/16 01:42:56;;;;;;;3.10;1.50;;;;;;;22.94;41.47;102069.47;4213665;28;20044;-70
2022/11/16 01:44:59;;;;;;;6.05;1.90;;;;;;;22.96;41.58;102058.06;4216147;28;20044;-70
2022/11/16 01:47:07;;;;;;;5.00;1.85;;;;;;;22.94;41.71;102049.09;4215465;28;20548;-70
2022/11/16 01:49:15;;;;;;;3.67;1.67;;;;;;;22.97;41.85;102051.34;4215659;28;20047;-69
2022/11/16 01:51:20;;;;;;;6.28;2.35;;;;;;;22.97;41.54;102029.03;4208826;28;20101;-70
2022/11/16 01:53:23;;;;;;;4.45;2.08;;;;;;;22.97;41.83;102023.44;4203428;28;20099;-68
2022/11/16 01:55:27;;;;;;;6.03;2.50;;;;;;;22.97;41.75;102026.22;4230901;28;20490;-73
2022/11/16 01:57:34;;;;;;;5.38;2.38;;;;;;;22.97;42.04;102012.28;4213616;28;20430;-81
2022/11/16 01:59:40;;;;;;;5.97;2.55;;;;;;;22.85;42.06;101978.94;4209742;28;20097;-70
2022/11/16 02:01:42;;;;;;;6.20;2.63;;;;;;;22.99;41.78;101990.50;4199398;28;20093;-70
2022/11/16 02:03:43;;;;;;;6.07;2.90;;;;;;;22.98;42.04;101989.66;4200040;28;22149;-70
2022/11/16 02:06:08;;;;;;;4.35;2.42;;;;;;;22.95;41.90;101978.19;4197002;28;20040;-73
2022/11/16 02:10:49;;;;;;;9.90;3.38;;;;;;;23.03;42.50;101958.97;4200328;28;20089;-68
2022/11/16 02:13:24;;;;;;;4.43;2.58;;;;;;;23.02;42.14;101942.50;4206462;28;20089;-68
2022/11/16 02:15:48;;;;;;;8.05;3.55;;;;;;;23.06;42.32;101935.28;4210223;28;20101;-68
2022/11/16 02:18:08;;;;;;;6.03;3.10;;;;;;;23.06;42.25;101929.69;4204719;28;20479;-68
2022/11/16 02:20:27;;;;;;;7.35;3.63;;;;;;;23.04;42.35;101920.72;4213361;28;20044;-68
2022/11/16 02:22:50;;;;;;;7.57;3.13;;;;;;;23.03;42.56;101907.91;4206776;28;20097;-72
2022/11/16 02:25:20;;;;;;;7.95;3.45;;;;;;;23.01;42.61;101893.38;4209914;28;20040;-70
2022/11/16 02:27:24;;;;;;;6.97;3.28;;;;;;;23.05;42.77;101884.19;4189179;28;20043;-72
2022/11/16 02:29:46;;;;;;;4.97;3.25;;;;;;;22.95;42.81;101852.59;4215769;28;20024;-72
2022/11/16 02:32:02;;;;;;;7.70;3.08;;;;;;;22.89;42.57;101843.34;4211056;28;20048;-69
2022/11/16 02:34:08;;;;;;;5.53;3.22;;;;;;;23.06;42.82;101876.66;4210142;28;20044;-70
2022/11/16 02:36:16;;;;;;;9.52;2.70;;;;;;;23.07;42.49;101889.50;4214602;28;20503;-69
2022/11/16 02:38:22;;;;;;;6.50;3.00;;;;;;;23.06;42.59;101901.78;4210361;28;20028;-68
2022/11/16 02:40:29;;;;;;;7.93;3.05;;;;;;;22.92;42.68;101906.19;4211669;28;20040;-69
2022/11/16 02:42:40;;;;;;;5.82;2.88;;;;;;;22.97;42.65;101920.16;4209324;28;20060;-72
2022/11/16 02:44:44;;;;;;;4.93;2.67;;;;;;;23.06;42.88;101924.94;4211610;28;20032;-69
2022/11/16 02:46:49;;;;;;;5.53;3.20;;;;;;;23.10;42.51;101925.25;4212324;28;20093;-69
2022/11/16 02:48:54;;;;;;;4.78;2.65;;;;;;;23.10;42.88;101930.84;4209015;28;20109;-69
2022/11/16 02:50:56;;;;;;;4.80;2.50;;;;;;;23.12;42.60;101925.81;4212229;28;20109;-71
2022/11/16 02:53:01;;;;;;;6.88;2.50;;;;;;;23.12;42.84;101933.34;4212890;28;20441;-70
2022/11/16 02:55:03;;;;;;;5.07;2.90;;;;;;;23.12;42.63;101928.59;4210940;28;20039;-70
2022/11/16 02:57:04;;;;;;;6.43;2.65;;;;;;;23.12;42.50;101928.59;4210190;28;20074;-70
2022/11/16 02:59:08;;;;;;;4.18;2.53;;;;;;;23.04;42.80;101937.47;4211592;28;20148;-70
2022/11/16 03:01:24;;;;;;;4.10;2.10;;;;;;;23.13;42.52;101963.78;4210354;28;20449;-68
2022/11/16 03:03:41;;;;;;;6.07;2.40;;;;;;;23.13;42.95;101935.84;4208994;28;20040;-68
2022/11/16 03:06:01;;;;;;;4.80;2.10;;;;;;;23.08;42.68;101911.53;4212479;28;20074;-69
2022/11/16 03:08:15;;;;;;;4.22;1.83;;;;;;;23.13;42.78;101907.09;4206867;28;20109;-70
2022/11/16 03:12:40;;;;;;;3.47;1.85;;;;;;;23.14;42.52;101876.13;4203292;28;20097;-73
2022/11/16 03:14:47;;;;;;;3.78;2.00;;;;;;;23.14;42.81;101864.97;4210719;28;20077;-71
2022/11/16 03:16:58;;;;;;;5.45;1.83;;;;;;;23.15;42.78;101855.47;4211994;28;20040;-72
2022/11/16 03:19:04;;;;;;;4.72;1.90;;;;;;;23.16;42.60;101859.94;4204929;28;20039;-72
2022/11/16 03:21:35;;;;;;;3.97;1.77;;;;;;;23.12;43.01;101847.63;4211342;28;20517;-70
2022/11/16 03:23:36;;;;;;;4.93;1.80;;;;;;;23.05;42.75;101827.53;4211363;28;20089;-70
2022/11/16 03:25:45;;;;;;;4.47;1.63;;;;;;;23.11;42.62;101832.00;4213596;28;20086;-70
2022/11/16 03:28:08;;;;;;;4.28;1.90;;;;;;;23.14;42.45;101825.88;4210710;28;20073;-69
2022/11/16 03:30:15;;;;;;;2.63;1.70;;;;;;;23.15;42.78;101801.59;4215895;28;20429;-68
2022/11/16 03:32:50;;;;;;;3.22;1.83;;;;;;;23.13;42.85;101787.88;4211676;28;20048;-69
2022/11/16 03:35:24;;;;;;;6.43;1.55;;;;;;;23.17;42.73;101766.66;4210870;28;20093;-69
2022/11/16 03:37:26;;;;;;;3.47;1.88;;;;;;;23.19;42.35;101750.50;4208394;28;20081;-70
2022/11/16 03:39:34;;;;;;;3.28;1.48;;;;;;;23.15;42.58;101741.00;4211473;28;20077;-69
2022/11/16 03:41:40;;;;;;;4.93;1.77;;;;;;;23.18;42.52;101736.78;4211597;28;20044;-71
2022/11/16 03:43:43;;;;;;;2.10;1.40;;;;;;;23.17;42.66;101718.38;4212526;28;20036;-69
2022/11/16 03:45:45;;;;;;;2.05;1.40;;;;;;;23.10;42.41;101693.53;4209422;28;20081;-70
2022/11/16 03:47:47;;;;;;;1.65;1.50;;;;;;;23.09;42.66;101697.41;4212354;28;20373;-70
2022/11/16 03:49:48;;;;;;;3.88;1.77;;;;;;;23.17;42.72;101713.63;4205705;28;20093;-71
2022/11/16 03:51:50;;;;;;;4.97;1.50;;;;;;;23.16;42.43;101717.53;4213851;28;20035;-71
2022/11/16 03:53:54;;;;;;;3.60;1.83;;;;;;;22.88;42.58;101665.00;4212422;28;20089;-70
2022/11/16 03:55:55;;;;;;;2.45;1.50;;;;;;;23.16;42.60;101717.53;4209649;28;20040;-69
2022/11/16 03:57:59;;;;;;;2.30;1.15;;;;;;;23.17;42.54;101727.59;4206433;28;20172;-74
2022/11/16 04:00:04;;;;;;;4.73;1.27;;;;;;;23.18;42.45;101731.22;4208433;28;20074;-69
2022/11/16 04:02:05;;;;;;;2.63;1.40;;;;;;;23.19;42.46;101739.31;4206744;28;20345;-69
2022/11/16 04:04:06;;;;;;;2.95;1.35;;;;;;;23.19;42.68;101728.16;4203704;28;20032;-68
2022/11/16 04:25:22;;;;;;;3.15;1.17;;;;;;;23.22;42.57;101727.59;4214615;28;20433;-69
2022/11/16 04:29:52;;;;;;;2.60;1.13;;;;;;;23.20;42.36;101695.50;4212222;28;20097;-73
2022/11/16 04:39:02;;;;;;;1.95;1.10;;;;;;;23.18;42.54;101653.88;4216006;28;20082;-69
2022/11/16 04:42:13;;;;;;;5.20;1.15;;;;;;;23.21;42.62;101647.72;4199654;28;20138;-69
2022/11/16 04:43:29;;;;;;;2.72;1.00;;;;;;;23.21;42.67;101646.91;4208310;28;21888;-69
2022/11/16 04:47:56;;;;;;;3.55;1.10;;;;;;;23.23;42.66;101633.47;4216122;28;20081;-69
2022/11/16 04:50:00;;;;;;;2.90;1.15;;;;;;;23.25;42.30;101634.06;4208580;28;20048;-69
2022/11/16 04:52:07;;;;;;;;;;;;;;;23.23;42.51;101628.75;4216973;28;20117;-69
2022/11/16 04:54:10;;;;;;;3.15;1.17;;;;;;;23.32;42.40;101615.91;4213893;28;19920;-69
2022/11/16 04:56:14;;;;;;;4.70;1.02;;;;;;;23.31;42.60;101605.81;4214287;28;20115;-69
2022/11/16 04:58:18;;;;;;;4.03;1.13;;;;;;;23.30;42.29;101601.38;4206225;28;20097;-69
2022/11/16 05:00:21;;;;;;;10.60;1.20;;;;;;;23.29;42.36;101605.28;4199765;28;20086;-69
2022/11/16 05:02:23;;;;;;;2.28;0.90;;;;;;;23.30;42.31;101623.72;4210425;28;20028;-69
2022/11/16 05:04:27;;;;;;;2.92;1.23;;;;;;;23.29;42.60;101632.38;4216339;28;20024;-69
2022/11/16 05:06:33;;;;;;;7.90;1.17;;;;;;;23.30;42.64;101615.34;4211849;28;20417;-69
2022/11/16 05:08:38;;;;;;;1.75;1.08;;;;;;;23.29;42.46;101582.13;4216517;28;20048;-69
2022/11/16 05:10:43;;;;;;;5.75;0.90;;;;;;;23.21;42.52;101552.81;4216781;28;20031;-69
2022/11/16 05:12:45;;;;;;;2.72;1.08;;;;;;;23.28;42.69;101553.34;4215303;28;20048;-69
2022/11/16 05:14:47;;;;;;;4.28;1.05;;;;;;;23.30;42.53;101534.34;4217073;28;20036;-69
2022/11/16 05:16:50;;;;;;;3.92;1.10;;;;;;;23.26;42.45;101522.06;4215603;28;20036;-69
2022/11/16 05:21:12;;;;;;;4.38;1.30;;;;;;;23.29;42.62;101543.03;4200174;28;20094;-69
2022/11/16 05:25:37;;;;;;;2.40;1.05;;;;;;;23.31;42.87;101577.06;4218373;28;20101;-69
2022/11/16 05:27:39;;;;;;;1.50;0.90;;;;;;;23.32;42.76;101575.94;4215786;28;20039;-70
2022/11/16 05:29:41;;;;;;;2.25;0.85;;;;;;;23.13;42.60;101547.78;4209836;28;20089;-69
2022/11/16 05:31:42;;;;;;;2.75;1.05;;;;;;;23.32;42.60;101571.22;4215481;28;20048;-70
2022/11/16 05:33:47;;;;;;;1.10;0.77;;;;;;;23.32;42.77;101554.47;4217095;28;20035;-68
2022/11/16 05:35:50;;;;;;;3.45;0.60;;;;;;;23.33;42.75;101539.38;4210161;28;20048;-69
2022/11/16 05:37:52;;;;;;;1.20;0.88;;;;;;;23.30;42.74;101537.16;4216036;28;20044;-70
2022/11/16 05:39:55;;;;;;;5.82;1.05;;;;;;;23.36;42.56;101539.91;4212898;28;20093;-69
2022/11/16 05:41:59;;;;;;;2.45;1.08;;;;;;;23.27;42.67;101520.13;4199807;28;20086;-69
2022/11/16 05:44:01;;;;;;;1.87;0.73;;;;;;;23.36;42.71;101532.38;4198705;28;20037;-69
2022/11/16 05:46:05;;;;;;;2.08;0.77;;;;;;;23.37;42.83;101511.72;4199331;28;20806;-69
2022/11/16 05:48:09;;;;;;;2.75;0.80;;;;;;;23.35;42.89;101491.59;4214806;28;20101;-69
2022/11/16 05:50:12;;;;;;;1.27;0.70;;;;;;;23.38;42.78;101473.47;4214672;28;20487;-69
2022/11/16 05:52:14;;;;;;;1.20;0.70;;;;;;;23.38;42.86;101460.34;4215344;28;20105;-70
2022/11/16 05:54:26;;;;;;;2.92;0.80;;;;;;;23.38;42.85;101451.94;4210933;28;20408;-69
2022/11/16 05:56:33;;;;;;;3.15;1.02;;;;;;;23.27;42.76;101431.59;4209398;28;20077;-70
2022/11/16 05:58:43;;;;;;;1.50;0.85;;;;;;;23.40;42.73;101451.66;4216635;28;20052;-69
2022/11/16 06:00:59;;;;;;;3.53;0.98;;;;;;;23.41;42.80;101456.13;4214820;28;20044;-69
2022/11/16 06:03:05;;;;;;;2.58;0.77;;;;;;;23.42;43.05;101475.41;4215243;28;20109;-69
2022/11/16 06:05:10;;;;;;;1.58;0.80;;;;;;;23.34;42.75;101445.25;4216620;28;20109;-69
2022/11/16 06:07:15;;;;;;;3.40;0.65;;;;;;;23.42;42.84;101458.66;4215825;28;20532;-70
2022/11/16 06:09:17;;;;;;;1.38;0.88;;;;;;;23.41;42.88;101461.69;4216262;28;20478;-69
2022/11/16 06:11:21;;;;;;;2.25;0.75;;;;;;;23.44;42.89;101452.75;4216257;28;20082;-69
2022/11/16 06:13:23;;;;;;;1.27;0.60;;;;;;;23.44;42.78;101447.16;4216234;28;20047;-69
2022/11/16 06:15:26;;;;;;;3.00;1.02;;;;;;;23.44;42.81;101434.03;4216465;28;20089;-69
2022/11/16 06:17:28;;;;;;;2.17;1.30;;;;;;;23.45;42.93;101423.69;4212723;28;20089;-69
2022/11/16 06:19:34;;;;;;;1.45;0.93;;;;;;;23.44;42.93;101406.13;4210897;28;20446;-69
2022/11/16 06:21:39;;;;;;;1.50;0.88;;;;;;;23.45;43.03;101395.78;4202987;28;20486;-68
2022/11/16 06:23:44;;;;;;;3.28;0.80;;;;;;;23.43;43.01;101381.28;4215865;28;20040;-69
2022/11/16 06:25:49;;;;;;;1.13;0.80;;;;;;;23.47;42.78;101387.97;4214035;28;20102;-70
2022/11/16 06:27:51;;;;;;;1.08;0.60;;;;;;;23.45;42.86;101385.44;4214830;28;20070;-70
2022/11/16 06:29:57;;;;;;;1.35;0.70;;;;;;;23.48;42.77;101389.63;4214587;28;20113;-69
2022/11/16 06:32:01;;;;;;;1.42;0.65;;;;;;;23.48;42.98;101389.63;4214464;28;20121;-70
2022/11/16 06:34:06;;;;;;;0.50;0.50;;;;;;;23.48;42.95;101389.63;4214504;28;20556;-68
2022/11/16 06:36:12;;;;;;;1.58;1.25;;;;;;;23.48;42.71;101382.06;4214170;28;20052;-68
2022/11/16 06:38:17;;;;;;;2.00;0.60;;;;;;;23.50;42.89;101370.59;4215932;28;20044;-68
2022/11/16 06:40:22;;;;;;;0.63;0.63;;;;;;;23.51;42.84;101355.53;4215599;28;20044;-68
2022/11/16 06:42:24;;;;;;;1.05;0.52;;;;;;;23.43;42.83;101328.22;4215807;28;20165;-68
2022/11/16 06:44:29;;;;;;;2.65;0.82;;;;;;;23.00;42.87;101261.72;4215128;28;20032;-69
2022/11/16 06:46:31;;;;;;;;;;;;;;;23.50;42.77;101321.19;4214887;28;20483;-68
2022/11/16 06:48:37;;;;;;;0.77;0.65;;;;;;;23.58;42.80;101306.56;4213508;28;19977;-69
2022/11/16 06:50:40;;;;;;;0.55;0.55;;;;;;;23.49;42.69;101310.28;4213929;28;20036;-68
2022/11/16 06:52:41;;;;;;;1.33;0.60;;;;;;;23.57;42.94;101348.78;4214459;28;20101;-69
2022/11/16 06:54:43;;;;;;;2.67;0.65;;;;;;;23.56;42.83;101338.75;4211558;28;20036;-68
2022/11/16 06:56:44;;;;;;;1.27;0.60;;;;;;;23.55;42.86;101307.19;4208998;28;20036;-69
2022/11/16 06:58:46;;;;;;;1.60;0.60;;;;;;;23.55;42.72;101272.81;4215485;28;20533;-69
2022/11/16 07:00:50;;;;;;;1.05;0.50;;;;;;;23.54;42.96;101255.22;4214110;28;20024;-69
2022/11/16 07:02:52;;;;;;;0.55;0.52;;;;;;;23.54;42.83;101249.63;4208326;28;20074;-69
2022/11/16 07:04:53;;;;;;;1.73;0.50;;;;;;;23.54;42.88;101254.38;4214937;28;20028;-68
2022/11/16 07:06:55;;;;;;;2.75;0.60;;;;;;;23.50;42.93;101244.91;4208959;28;20052;-69
2022/11/16 07:08:56;;;;;;;0.95;0.30;;;;;;;23.57;43.07;101248.22;4214919;28;20544;-69
2022/11/16 07:11:02;;;;;;;2.10;0.60;;;;;;;23.56;42.93;101257.72;4214242;28;20040;-69
2022/11/16 07:13:04;;;;;;;0.65;0.65;;;;;;;23.57;43.24;101248.22;4214078;28;20036;-71
2022/11/16 07:15:06;;;;;;;0.75;0.57;;;;;;;23.57;42.83;101242.63;4214926;28;20032;-71
2022/11/16 07:17:07;;;;;;;1.38;0.65;;;;;;;23.50;43.19;101225.34;4215063;28;20109;-69
2022/11/16 07:19:11;;;;;;;0.57;0.40;;;;;;;23.57;43.02;101237.88;4205103;28;20032;-68
2022/11/16 07:21:15;;;;;;;2.40;0.63;;;;;;;23.47;43.14;101212.00;4214293;28;20125;-71
2022/11/16 07:23:17;;;;;;;1.40;0.52;;;;;;;23.59;43.01;101212.44;4196074;28;20317;-69
2022/11/16 07:25:23;;;;;;;0.63;0.50;;;;;;;23.61;42.94;101221.38;4198079;28;20087;-69
2022/11/16 07:27:25;;;;;;;0.57;0.50;;;;;;;23.62;43.02;101205.44;4197206;28;20090;-69
2022/11/16 07:29:26;;;;;;;1.55;0.55;;;;;;;23.61;42.97;101204.59;4198339;28;20478;-68
2022/11/16 07:31:30;;;;;;;0.65;0.50;;;;;;;23.59;43.27;101190.94;4214367;28;20036;-69
2022/11/16 07:33:33;;;;;;;2.22;0.52;;;;;;;23.62;43.15;101188.66;4214732;28;20081;-69
2022/11/16 07:35:37;;;;;;;1.83;0.40;;;;;;;23.62;42.84;101181.13;4214827;28;20493;-69
2022/11/16 07:37:38;;;;;;;0.70;0.47;;;;;;;23.52;43.14;101167.25;4214403;28;20032;-69
2022/11/16 07:39:39;;;;;;;0.98;0.50;;;;;;;23.64;43.22;101180.81;4212100;28;20097;-69
2022/11/16 07:41:44;;;;;;;2.15;0.60;;;;;;;23.63;43.00;101174.41;4210723;28;20035;-69
2022/11/16 07:43:48;;;;;;;2.00;0.60;;;;;;;23.65;43.12;101166.59;4213280;28;20109;-69
2022/11/16 07:45:51;;;;;;;1.13;0.60;;;;;;;23.62;43.01;101158.78;4212836;28;20281;-69
2022/11/16 07:47:53;;;;;;;0.68;0.52;;;;;;;23.50;43.07;101130.38;4214522;28;20093;-69
2022/11/16 07:49:54;;;;;;;1.05;0.50;;;;;;;23.62;42.86;101158.78;4213862;28;20422;-70
2022/11/16 07:51:55;;;;;;;0.50;0.30;;;;;;;23.65;43.17;101149.84;4211391;28;20422;-69
2022/11/16 07:53:57;;;;;;;0.80;0.50;;;;;;;23.68;43.01;101154.00;4212901;28;20561;-69
2022/11/16 07:56:02;;;;;;;0.77;0.40;;;;;;;23.50;43.20;101124.81;4211834;28;20044;-69
2022/11/16 07:58:03;;;;;;;;;;;;;;;23.66;43.34;101145.91;4213949;28;20043;-69
2022/11/16 08:00:04;;;;;;;0.85;0.50;;;;;;;23.70;42.92;101135.81;4208622;28;19931;-68
2022/11/16 08:02:07;;;;;;;0.65;0.50;;;;;;;23.74;42.91;101144.47;4210812;28;20104;-68
2022/11/16 08:04:09;;;;;;;1.20;0.73;;;;;;;23.67;42.88;101124.41;4213230;28;20085;-70
2022/11/16 08:06:16;;;;;;;0.60;0.40;;;;;;;23.65;43.05;101116.31;4213395;28;20066;-68
2022/11/16 08:08:17;;;;;;;0.85;0.50;;;;;;;23.74;42.91;101119.31;4213068;28;20040;-69
2022/11/16 08:10:18;;;;;;;0.50;0.45;;;;;;;23.73;43.08;101126.84;4212993;28;20044;-69
2022/11/16 08:12:20;;;;;;;0.30;0.30;;;;;;;23.71;43.02;101122.69;4213380;28;20093;-69
2022/11/16 08:14:21;;;;;;;0.50;0.40;;;;;;;23.74;43.13;101124.91;4209734;28;20085;-68
2022/11/16 08:16:25;;;;;;;0.40;0.40;;;;;;;23.62;43.01;101107.66;4212896;28;20020;-68
2022/11/16 08:18:28;;;;;;;0.80;0.38;;;;;;;23.73;42.84;101117.63;4213589;28;20105;-69
2022/11/16 08:20:30;;;;;;;0.40;0.40;;;;;;;23.75;43.28;101107.00;4212997;28;20101;-69
2022/11/16 08:22:34;;;;;;;0.50;0.43;;;;;;;23.73;42.80;101096.13;4212635;28;20051;-69
2022/11/16 08:24:35;;;;;;;0.67;0.40;;;;;;;23.73;42.98;101096.13;4214214;28;20040;-69
2022/11/16 08:26:36;;;;;;;0.30;0.30;;;;;;;23.70;43.07;101095.88;4211566;28;20338;-69
2022/11/16 08:28:38;;;;;;;0.50;0.40;;;;;;;23.75;42.90;101099.44;4213190;28;20032;-69
2022/11/16 08:30:41;;;;;;;0.30;0.30;;;;;;;23.61;43.30;101081.69;4210956;28;20441;-69
2022/11/16 08:32:44;;;;;;;0.55;0.30;;;;;;;23.76;42.99;101126.25;4213064;28;20044;-68
2022/11/16 08:34:48;;;;;;;0.47;0.40;;;;;;;23.76;43.34;101129.03;4213044;28;20078;-69
2022/11/16 08:36:49;;;;;;;0.63;0.30;;;;;;;23.76;43.10;101115.06;4206088;28;20117;-68
2022/11/16 08:38:51;;;;;;;0.32;0.30;;;;;;;23.77;43.04;101111.13;4213497;28;20116;-69
2022/11/16 08:40:55;;;;;;;0.40;0.40;;;;;;;23.69;43.38;101106.22;4212917;28;20048;-69
2022/11/16 08:42:56;;;;;;;0.53;0.40;;;;;;;23.78;43.12;101132.38;4211828;28;20105;-69
2022/11/16 08:45:00;;;;;;;0.40;0.35;;;;;;;23.77;42.94;101141.03;4213123;28;20048;-68
2022/11/16 08:47:02;;;;;;;0.83;0.20;;;;;;;23.72;43.20;101144.72;4213987;28;20483;-68
2022/11/16 08:49:03;;;;;;;0.60;0.50;;;;;;;23.79;43.09;101150.81;4208913;28;20048;-68
2022/11/16 08:51:09;;;;;;;0.70;0.30;;;;;;;23.81;43.22;101142.97;4213701;28;20544;-68
2022/11/16 08:53:12;;;;;;;0.68;0.30;;;;;;;23.82;43.30;101149.38;4214011;28;20101;-69
2022/11/16 08:55:13;;;;;;;0.70;0.40;;;;;;;23.71;43.25;101136.66;4214223;28;20064;-69
2022/11/16 08:57:14;;;;;;;0.40;0.32;;;;;;;23.72;43.10;101147.53;4212276;28;20047;-69
2022/11/16 08:59:16;;;;;;;0.93;0.32;;;;;;;23.82;43.38;101158.63;4210534;28;20040;-69
2022/11/16 09:01:19;;;;;;;0.40;0.40;;;;;;;23.82;43.22;101161.41;4211526;28;20044;-69
2022/11/16 09:03:26;;;;;;;0.95;0.50;;;;;;;23.83;43.01;101165.88;4212690;28;20490;-68
2022/11/16 09:05:28;;;;;;;1.10;0.30;;;;;;;23.84;43.10;101175.06;4213618;28;20078;-68
2022/11/16 09:07:29;;;;;;;0.20;0.20;;;;;;;23.83;43.15;101168.66;4213691;28;20090;-68
2022/11/16 09:09:30;;;;;;;0.30;0.30;;;;;;;23.86;43.01;101171.97;4211067;28;20052;-68
2022/11/16 09:11:52;;;;;;;1.13;0.30;;;;;;;23.83;43.27;101168.66;4212441;28;20036;-69
2022/11/16 09:13:54;;;;;;;0.43;0.32;;;;;;;23.87;43.07;101174.50;4217070;28;20085;-68
2022/11/16 09:15:59;;;;;;;0.98;0.40;;;;;;;23.86;43.22;101163.59;4216778;28;20028;-68
2022/11/16 09:18:00;;;;;;;2.15;0.30;;;;;;;23.88;43.35;101173.38;4215900;28;20044;-69
2022/11/16 09:20:02;;;;;;;0.30;0.30;;;;;;;23.88;43.43;101164.16;4217073;28;20032;-68
2022/11/16 09:22:04;;;;;;;0.70;0.30;;;;;;;23.89;43.10;101161.06;4215736;28;20044;-68
2022/11/16 09:24:23;;;;;;;0.30;0.20;;;;;;;23.80;43.38;101148.84;4216816;28;20089;-68
2022/11/16 09:26:25;;;;;;;0.20;0.20;;;;;;;23.78;43.10;101128.75;4215250;28;20044;-69
2022/11/16 09:28:26;;;;;;;0.22;0.22;;;;;;;23.91;43.05;101141.19;4215521;28;20437;-69
2022/11/16 09:30:27;;;;;;;0.40;0.20;;;;;;;23.91;43.38;101146.78;4215891;28;20040;-68
2022/11/16 09:32:28;;;;;;;0.28;0.28;;;;;;;23.84;43.38;101152.72;4215570;28;20032;-68
2022/11/16 09:34:36;;;;;;;0.20;0.20;;;;;;;23.91;42.89;101152.34;4216351;28;20032;-68
2022/11/16 09:36:40;;;;;;;0.50;0.30;;;;;;;23.93;43.16;101155.72;4215443;28;20044;-68
2022/11/16 09:38:43;;;;;;;0.30;0.30;;;;;;;23.91;43.19;101147.59;4215980;28;20109;-68
2022/11/16 09:40:46;;;;;;;0.38;0.25;;;;;;;23.92;43.27;101149.28;4199724;28;20044;-68
2022/11/16 09:43:05;;;;;;;0.20;0.20;;;;;;;23.48;43.10;101076.78;4215426;28;20097;-68
2022/11/16 09:45:44;;;;;;;0.40;0.30;;;;;;;23.93;43.25;101144.53;4214445;28;20032;-68
2022/11/16 09:47:50;;;;;;;0.20;0.20;;;;;;;23.97;42.86;101145.59;4207571;28;20100;-68
2022/11/16 09:49:53;;;;;;;1.15;0.40;;;;;;;23.98;43.07;101158.44;4215606;28;20101;-68
2022/11/16 09:52:18;;;;;;;0.22;0.20;;;;;;;23.97;43.19;101171.59;4215297;28;20043;-69
2022/11/16 09:54:30;;;;;;;0.65;0.32;;;;;;;23.99;43.07;101176.88;4213563;28;20040;-69
2022/11/16 09:56:42;;;;;;;0.63;0.30;;;;;;;23.91;43.13;101163.53;4215273;28;20536;-69
2022/11/16 09:58:52;;;;;;;0.20;0.20;;;;;;;23.98;43.10;101180.81;4215014;28;20101;-69
2022/11/16 10:01:02;;;;;;;0.70;0.30;;;;;;;23.99;43.31;101180.50;4215261;28;20048;-69
2022/11/16 10:03:09;;;;;;;0.40;0.30;;;;;;;23.99;43.27;101194.47;4216665;28;20082;-70
2022/11/16 10:05:29;;;;;;;0.30;0.20;;;;;;;23.99;43.38;101188.06;4215353;28;20051;-71
2022/11/16 10:07:35;;;;;;;0.32;0.30;;;;;;;24.01;43.15;101197.00;4204858;28;20040;-72
2022/11/16 10:09:37;;;;;;;0.57;0.30;;;;;;;24.00;43.04;101184.94;4215355;28;20101;-73
2022/11/16 10:11:53;;;;;;;0.20;0.20;;;;;;;24.01;43.22;101185.81;4212347;28;20040;-72
2022/11/16 10:14:04;;;;;;;0.20;0.20;;;;;;;24.01;43.03;101188.59;4215224;28;20052;-71
2022/11/16 10:16:11;;;;;;;0.40;0.30;;;;;;;24.01;43.35;101202.59;4215016;28;20032;-70
2022/11/16 10:18:46;;;;;;;0.57;0.30;;;;;;;23.75;43.33;101172.09;4209314;28;20097;-71
2022/11/16 10:21:08;;;;;;;1.13;0.30;;;;;;;24.03;42.98;101206.72;4212670;28;20044;-71
2022/11/16 10:23:18;;;;;;;0.20;0.20;;;;;;;24.04;43.05;101202.81;4213928;28;20044;-72
2022/11/16 10:25:23;;;;;;;0.35;0.28;;;;;;;24.05;43.07;101198.03;4215323;28;20040;-71
2022/11/16 10:27:48;;;;;;;0.30;0.30;;;;;;;24.02;43.06;101191.09;4215552;28;20593;-71